createdAt,value
2023-04-03T00:03:58.188Z,214313.00
2023-04-03T00:10:00.876Z,214274.00
2023-04-03T00:16:04.824Z,214244.00
2023-04-03T00:22:07.129Z,214155.00
2023-04-03T00:28:10.096Z,214099.00
2023-04-03T00:34:12.552Z,214052.00
2023-04-03T00:40:16.818Z,213956.00
2023-04-03T00:46:19.400Z,213892.00
2023-04-03T00:52:26.862Z,213858.00
2023-04-03T00:58:41.289Z,213838.00
2023-04-03T01:04:45.211Z,213816.00
2023-04-03T01:10:47.603Z,213762.00
2023-04-03T01:16:56.705Z,213734.00
2023-04-03T01:23:11.263Z,213742.00
2023-04-03T01:29:13.754Z,213797.00
2023-04-03T01:35:16.443Z,213852.00
2023-04-03T01:41:19.513Z,213864.00
2023-04-03T01:47:23.914Z,213872.00
2023-04-03T01:53:26.740Z,213852.00
2023-04-03T01:59:29.695Z,213894.00
2023-04-03T02:05:32.475Z,213950.00
2023-04-03T02:11:34.964Z,213969.00
2023-04-03T02:17:38.121Z,214011.00
2023-04-03T02:23:40.531Z,214078.00
2023-04-03T02:29:42.843Z,214099.00
2023-04-03T02:35:45.373Z,214058.00
2023-04-03T02:41:47.833Z,214003.00
2023-04-03T02:47:56.588Z,213894.00
2023-04-03T02:53:59.455Z,213830.00
2023-04-03T03:00:06.770Z,213770.00
2023-04-03T03:06:15.458Z,213797.00
2023-04-03T03:12:23.119Z,213762.00
2023-04-03T03:18:26.267Z,213734.00
2023-04-03T03:24:28.859Z,213720.00
2023-04-03T03:30:31.508Z,213645.00
2023-04-03T03:36:33.621Z,213645.00
2023-04-03T03:42:36.482Z,213694.00
2023-04-03T03:48:38.771Z,213686.00
2023-04-03T03:54:41.207Z,213686.00
2023-04-03T04:00:43.486Z,213694.00
2023-04-03T04:06:46.742Z,213673.00
2023-04-03T04:12:50.426Z,213673.00
2023-04-03T04:18:53.926Z,213714.00
2023-04-03T04:24:56.921Z,213770.00
2023-04-03T04:30:59.431Z,213797.00
2023-04-03T04:37:03.283Z,213830.00
2023-04-03T04:43:06.843Z,213908.00
2023-04-03T04:49:09.567Z,213900.00
2023-04-03T04:55:12.301Z,213908.00
2023-04-03T05:01:14.699Z,214244.00
2023-04-03T05:07:26.485Z,216788.00
2023-04-03T05:13:29.684Z,218345.00
2023-04-03T05:19:33.039Z,219660.00
2023-04-03T05:25:38.753Z,220253.00
2023-04-03T05:31:41.704Z,219941.00
2023-04-03T05:37:46.419Z,220182.00
2023-04-03T05:43:50.840Z,220085.00
2023-04-03T05:49:53.938Z,220204.00
2023-04-03T05:55:56.571Z,220667.00
2023-04-03T06:01:59.660Z,220916.00
2023-04-03T06:08:02.006Z,220827.00
2023-04-03T06:14:04.592Z,221315.00
2023-04-03T06:20:06.827Z,219558.00
2023-04-03T06:26:10.001Z,218138.00
2023-04-03T06:32:12.309Z,217612.00
2023-04-03T06:38:14.607Z,217079.00
2023-04-03T06:44:17.472Z,217008.00
2023-04-03T06:50:19.981Z,216493.00
2023-04-03T06:56:22.995Z,216353.00
2023-04-03T07:02:25.572Z,216675.00
2023-04-03T07:08:28.159Z,216788.00
2023-04-03T07:14:30.501Z,217115.00
2023-04-03T07:20:32.974Z,218330.00
2023-04-03T07:26:35.314Z,218102.00
2023-04-03T07:32:38.134Z,217680.00
2023-04-03T07:38:40.765Z,217845.00
2023-04-03T07:44:42.929Z,217918.00
2023-04-03T07:50:48.748Z,218696.00
2023-04-03T07:56:51.529Z,221245.00
2023-04-03T08:02:53.970Z,220704.00
2023-04-03T08:08:56.353Z,221267.00
2023-04-03T08:14:58.893Z,222145.00
2023-04-03T08:21:01.623Z,221888.00
2023-04-03T08:27:04.101Z,222137.00
2023-04-03T08:33:06.493Z,222294.00
2023-04-03T08:39:09.287Z,222813.00
2023-04-03T08:45:44.154Z,222951.00
2023-04-03T08:51:50.163Z,221411.00
2023-04-03T08:58:00.071Z,221413.00
2023-04-03T09:04:04.255Z,220841.00
2023-04-03T09:10:07.641Z,220623.00
2023-04-03T09:16:36.103Z,219220.00
2023-04-03T09:22:49.648Z,220974.00
2023-04-03T09:28:57.469Z,220465.00
2023-04-03T09:35:48.130Z,221163.00
2023-04-03T09:42:08.688Z,220427.00
2023-04-03T09:48:19.444Z,221516.00
2023-04-03T09:54:38.827Z,222145.00
2023-04-03T10:00:41.888Z,221245.00
2023-04-03T10:06:50.555Z,220878.00
2023-04-03T10:13:20.238Z,220280.00
2023-04-03T10:19:44.972Z,220166.00
2023-04-03T10:26:15.927Z,220536.00
2023-04-03T10:32:20.848Z,220332.00
2023-04-03T10:38:36.029Z,219941.00
2023-04-03T10:44:44.663Z,219207.00
2023-04-03T10:51:28.811Z,218802.00
2023-04-03T10:57:32.000Z,219521.00
2023-04-03T11:03:45.539Z,219986.00
2023-04-03T11:09:58.753Z,219472.00
2023-04-03T11:16:01.898Z,219536.00
2023-04-03T11:22:24.718Z,219588.00
2023-04-03T11:28:27.846Z,219472.00
2023-04-03T11:34:35.688Z,220166.00
2023-04-03T11:40:39.298Z,220878.00
2023-04-03T11:46:57.885Z,219970.00
2023-04-03T11:53:07.867Z,218961.00
2023-04-03T11:59:15.643Z,218832.00
2023-04-03T12:05:31.059Z,218480.00
2023-04-03T12:11:35.377Z,218696.00
2023-04-03T12:17:38.226Z,218723.00
2023-04-03T12:24:18.882Z,218567.00
2023-04-03T12:30:27.992Z,218324.00
2023-04-03T12:36:46.529Z,218160.00
2023-04-03T12:43:11.833Z,218102.00
2023-04-03T12:49:34.828Z,217959.00
2023-04-03T12:55:37.440Z,217867.00
2023-04-03T13:01:40.636Z,217867.00
2023-04-03T13:07:45.239Z,217951.00
2023-04-03T13:13:58.664Z,217889.00
2023-04-03T13:20:14.868Z,218066.00
2023-04-03T13:26:20.040Z,218023.00
2023-04-03T13:32:26.222Z,218102.00
2023-04-03T13:38:34.251Z,217973.00
2023-04-03T13:44:40.853Z,218029.00
2023-04-03T13:51:04.505Z,217881.00
2023-04-03T13:57:16.305Z,217738.00
2023-04-03T14:03:44.329Z,217760.00
2023-04-03T14:09:46.691Z,217694.00
2023-04-03T14:15:50.125Z,217568.00
2023-04-03T14:21:54.554Z,217475.00
2023-04-03T14:27:57.553Z,217398.00
2023-04-03T14:33:59.937Z,217313.00
2023-04-03T14:40:05.150Z,217327.00
2023-04-03T14:46:16.180Z,217354.00
2023-04-03T14:52:32.401Z,217362.00
2023-04-03T14:58:38.216Z,217311.00
2023-04-03T15:04:41.138Z,217271.00
2023-04-03T15:10:43.308Z,217235.00
2023-04-03T15:16:46.368Z,217162.00
2023-04-03T15:22:48.792Z,217093.00
2023-04-03T15:28:51.112Z,217071.00
2023-04-03T15:34:56.042Z,217036.00
2023-04-03T15:40:59.367Z,217008.00
2023-04-03T15:47:02.774Z,216986.00
2023-04-03T15:53:05.483Z,216890.00
2023-04-03T15:59:07.734Z,216854.00
2023-04-03T16:05:11.628Z,216782.00
2023-04-03T16:11:14.176Z,216705.00
2023-04-03T16:17:16.887Z,216647.00
2023-04-03T16:23:19.530Z,216607.00
2023-04-03T16:29:22.216Z,216543.00
2023-04-03T16:35:24.478Z,216501.00
2023-04-03T16:41:26.872Z,216472.00
2023-04-03T16:47:29.118Z,216436.00
2023-04-03T16:53:31.433Z,216414.00
2023-04-03T16:59:33.732Z,216386.00
2023-04-03T17:05:36.920Z,216345.00
2023-04-03T17:11:39.901Z,216345.00
2023-04-03T17:17:42.699Z,216367.00
2023-04-03T17:23:51.073Z,216392.00
2023-04-03T17:29:53.349Z,216392.00
2023-04-03T17:35:58.566Z,216392.00
2023-04-03T17:42:01.869Z,216400.00
2023-04-03T17:48:04.845Z,216345.00
2023-04-03T17:54:07.640Z,216304.00
2023-04-03T18:00:10.320Z,216288.00
2023-04-03T18:06:17.727Z,216210.00
2023-04-03T18:12:20.564Z,215965.00
2023-04-03T18:18:23.143Z,215769.00
2023-04-03T18:24:26.717Z,215656.00
2023-04-03T18:30:30.073Z,215552.00
2023-04-03T18:36:32.450Z,215477.00
2023-04-03T18:42:34.858Z,215441.00
2023-04-03T18:48:41.503Z,215419.00
2023-04-03T18:54:43.794Z,215441.00
2023-04-03T19:00:46.657Z,215383.00
2023-04-03T19:06:49.467Z,215295.00
2023-04-03T19:12:52.272Z,215168.00
2023-04-03T19:18:54.501Z,215050.00
2023-04-03T19:24:56.934Z,214932.00
2023-04-03T19:31:00.671Z,214725.00
2023-04-03T19:37:03.216Z,214432.00
2023-04-03T19:43:05.654Z,214244.00
2023-04-03T19:49:08.105Z,214127.00
2023-04-03T19:55:10.829Z,214025.00
2023-04-03T20:01:12.972Z,213928.00
2023-04-03T20:07:15.837Z,213811.00
2023-04-03T20:13:18.487Z,213694.00
2023-04-03T20:19:21.823Z,213589.00
2023-04-03T20:31:33.120Z,213336.00
2023-04-03T20:37:37.150Z,213212.00
2023-04-03T20:43:40.275Z,213025.00
2023-04-03T20:49:45.864Z,212945.00
2023-04-03T20:56:01.513Z,212856.00
2023-04-03T21:02:04.049Z,212816.00
2023-04-03T21:08:43.767Z,212794.00
2023-04-03T21:15:23.568Z,212816.00
2023-04-03T21:21:27.232Z,212834.00
2023-04-03T21:27:29.663Z,212836.00
2023-04-03T21:33:32.040Z,212834.00
2023-04-03T21:39:34.386Z,212752.00
2023-04-03T21:45:39.516Z,212700.00
2023-04-03T21:51:42.855Z,212616.00
2023-04-03T21:57:51.799Z,212549.00
2023-04-03T22:03:59.318Z,212499.00
2023-04-03T22:10:01.855Z,212427.00
2023-04-03T22:16:04.526Z,212385.00
2023-04-03T22:22:07.868Z,212379.00
2023-04-03T22:28:09.994Z,212276.00
2023-04-03T22:34:12.131Z,212203.00
2023-04-03T22:40:14.554Z,212168.00
2023-04-03T22:46:17.088Z,212162.00
2023-04-03T22:52:19.546Z,212122.00
2023-04-03T22:58:25.984Z,212120.00
2023-04-03T23:04:28.155Z,212154.00
2023-04-03T23:10:30.680Z,212182.00
2023-04-03T23:16:33.282Z,212203.00
2023-04-03T23:22:35.586Z,212223.00
2023-04-03T23:28:38.548Z,212203.00
2023-04-03T23:34:41.096Z,212162.00
2023-04-03T23:40:43.627Z,212120.00
2023-04-03T23:46:45.867Z,212100.00
2023-04-03T23:52:48.067Z,212092.00
2023-04-03T23:58:50.978Z,212100.00
